This is the latest recevied weather packets stored in our database for station/object KE0PRS. If no packets are shown the sender has not sent any weather packets the latest 10 day(s).
| Time | Temp. | Humidity | Pressure | Rain* | Wind** | Luminosity | Snow |
|---|---|---|---|---|---|---|---|
| 1777492083 | 16.11° C | 41% | 1020.3 hPa | 0 mm | - | 743 W/m² | - |
| 1777491780 | 16.67° C | 40% | 1020.4 hPa | 0 mm | - | 654 W/m² | - |
| 1777491476 | 16.11° C | 42% | 1020.6 hPa | 0 mm | - | 756 W/m² | - |
| 1777491173 | 15.56° C | 43% | 1020.7 hPa | 0 mm | - | 724 W/m² | - |
| 1777490869 | 15.56° C | 45% | 1020.7 hPa | 0 mm | - | 557 W/m² | - |
| 1777490565 | 15.56° C | 46% | 1020.7 hPa | 0 mm | - | 464 W/m² | - |
| 1777490261 | 15.56° C | 43% | 1020.8 hPa | 0 mm | - | 472 W/m² | - |
| 1777489959 | 15.56° C | 45% | 1020.7 hPa | 0 mm | - | 433 W/m² | - |
| 1777489657 | 15.56° C | 46% | 1020.6 hPa | 0 mm | - | 542 W/m² | - |
| 1777489353 | 15.56° C | 47% | 1020.8 hPa | 0 mm | - | 519 W/m² | - |
| 1777489050 | 15.56° C | 47% | 1020.9 hPa | 0 mm | - | 642 W/m² | - |
| 1777488747 | 15.56° C | 47% | 1020.9 hPa | 0 mm | - | 773 W/m² | - |
| 1777488444 | 15° C | 50% | 1021.3 hPa | 0 mm | - | 707 W/m² | - |
| 1777488143 | 14.44° C | 50% | 1021.1 hPa | 0 mm | - | 666 W/m² | - |
| 1777487841 | 14.44° C | 50% | 1021.1 hPa | 0 mm | - | 535 W/m² | - |
| 1777487538 | 14.44° C | 48% | 1021.4 hPa | 0 mm | - | 471 W/m² | - |
| 1777487235 | 13.89° C | 51% | 1021.3 hPa | 0 mm | - | 449 W/m² | - |
| 1777486931 | 13.89° C | 52% | 1021.4 hPa | 0 mm | - | 427 W/m² | - |
| 1777486628 | 13.89° C | 52% | 1021.7 hPa | 0 mm | - | 380 W/m² | - |
| 1777486326 | 13.33° C | 55% | 1021.6 hPa | 0 mm | - | 394 W/m² | - |
| 1777486023 | 13.89° C | 52% | 1021.7 hPa | 0 mm | - | 387 W/m² | - |
| 1777485720 | 13.33° C | 54% | 1021.6 hPa | 0 mm | - | 396 W/m² | - |
| 1777485420 | 12.78° C | 54% | 1021.7 hPa | 0 mm | - | 363 W/m² | - |
| 1777485116 | 13.33° C | 56% | 1021.7 hPa | 0 mm | - | 345 W/m² | - |
| 1777484813 | 13.33° C | 56% | 1021.8 hPa | 0 mm | - | 329 W/m² | - |
* Rain latest hour (hover to see other rain measurements)
** Current wind speed in m/s (hover to see current wind gust speed)